createdAt,value
2023-04-11T00:04:01.014Z,100.00
2023-04-11T00:09:06.968Z,100.00
2023-04-11T00:14:12.816Z,100.00
2023-04-11T00:19:17.365Z,100.00
2023-04-11T00:24:23.088Z,100.00
2023-04-11T00:29:27.488Z,100.00
2023-04-11T00:34:32.227Z,100.00
2023-04-11T00:39:38.612Z,100.00
2023-04-11T00:44:43.002Z,100.00
2023-04-11T00:49:47.510Z,100.00
2023-04-11T00:54:53.500Z,100.00
2023-04-11T00:59:58.483Z,100.00
2023-04-11T01:05:02.770Z,100.00
2023-04-11T01:10:11.384Z,100.00
2023-04-11T01:15:15.862Z,100.00
2023-04-11T01:20:21.823Z,100.00
2023-04-11T01:25:28.307Z,100.00
2023-04-11T01:30:33.379Z,100.00
2023-04-11T01:35:37.793Z,100.00
2023-04-11T01:40:44.743Z,100.00
2023-04-11T01:45:49.346Z,100.00
2023-04-11T01:50:53.581Z,100.00
2023-04-11T01:55:59.196Z,100.00
2023-04-11T02:01:03.396Z,100.00
2023-04-11T02:06:08.349Z,100.00
2023-04-11T02:11:14.108Z,100.00
2023-04-11T02:16:18.547Z,100.00
2023-04-11T02:21:23.061Z,100.00
2023-04-11T02:26:28.865Z,100.00
2023-04-11T02:31:34.318Z,100.00
2023-04-11T02:36:38.547Z,100.00
2023-04-11T02:41:44.251Z,100.00
2023-04-11T02:46:48.691Z,100.00
2023-04-11T02:51:52.911Z,100.00
2023-04-11T02:56:58.767Z,100.00
2023-04-11T03:02:03.660Z,100.00
2023-04-11T03:07:08.590Z,100.00
2023-04-11T03:12:14.335Z,100.00
2023-04-11T03:17:29.188Z,100.00
2023-04-11T03:22:34.148Z,100.00
2023-04-11T03:27:40.202Z,100.00
2023-04-11T03:32:44.779Z,100.00
2023-04-11T03:37:49.499Z,100.00
2023-04-11T03:42:55.700Z,100.00
2023-04-11T03:48:04.711Z,100.00
2023-04-11T03:53:22.647Z,100.00
2023-04-11T03:58:32.905Z,100.00
2023-04-11T04:03:37.873Z,100.00
2023-04-11T04:08:42.273Z,100.00
2023-04-11T04:13:48.974Z,100.00
2023-04-11T04:18:56.336Z,100.00
2023-04-11T04:24:03.883Z,100.00
2023-04-11T04:29:35.030Z,100.00
2023-04-11T04:34:47.052Z,100.00
2023-04-11T04:40:02.364Z,100.00
2023-04-11T04:45:11.749Z,100.00
2023-04-11T04:50:17.644Z,100.00
2023-04-11T04:55:22.040Z,100.00
2023-04-11T05:00:29.496Z,100.00
2023-04-11T05:05:38.232Z,100.00
2023-04-11T05:10:42.472Z,100.00
2023-04-11T05:15:54.397Z,100.00
2023-04-11T05:21:05.290Z,100.00
2023-04-11T05:26:15.561Z,100.00
2023-04-11T05:31:21.914Z,100.00
2023-04-11T05:36:26.564Z,100.00
2023-04-11T05:41:31.504Z,100.00
2023-04-11T05:46:37.992Z,100.00
2023-04-11T05:51:42.193Z,100.00
2023-04-11T05:56:46.602Z,100.00
2023-04-11T06:01:52.761Z,100.00
2023-04-11T06:06:57.566Z,100.00
2023-04-11T06:12:02.024Z,100.00
2023-04-11T06:17:07.809Z,100.00
2023-04-11T06:22:11.986Z,100.00
2023-04-11T06:27:16.679Z,100.00
2023-04-11T06:32:23.351Z,100.00
2023-04-11T06:37:27.683Z,100.00
2023-04-11T06:42:31.893Z,100.00
2023-04-11T06:47:37.672Z,100.00
2023-04-11T06:52:41.832Z,99.15
2023-04-11T06:57:46.151Z,87.09
2023-04-11T07:02:52.897Z,98.73
2023-04-11T07:07:57.304Z,96.80
2023-04-11T07:13:01.736Z,94.50
2023-04-11T07:18:08.040Z,90.20
2023-04-11T07:23:12.442Z,89.04
2023-04-11T07:28:17.224Z,87.72
2023-04-11T07:33:22.801Z,90.24
2023-04-11T07:38:31.223Z,88.51
2023-04-11T07:43:35.367Z,85.14
2023-04-11T07:48:41.263Z,90.03
2023-04-11T07:53:45.831Z,92.13
2023-04-11T07:58:50.352Z,93.33
2023-04-11T08:03:57.072Z,93.23
2023-04-11T08:09:02.173Z,93.63
2023-04-11T08:14:06.599Z,92.63
2023-04-11T08:19:12.828Z,90.57
2023-04-11T08:24:17.864Z,88.45
2023-04-11T08:29:22.379Z,86.31
2023-04-11T08:34:28.197Z,84.33
2023-04-11T08:39:32.547Z,78.36
2023-04-11T08:44:37.347Z,69.59
2023-04-11T08:49:43.130Z,68.12
2023-04-11T08:54:47.525Z,66.51
2023-04-11T08:59:52.569Z,65.60
2023-04-11T09:04:59.234Z,62.98
2023-04-11T09:10:20.019Z,59.11
2023-04-11T09:15:25.866Z,61.44
2023-04-11T09:20:31.695Z,60.97
2023-04-11T09:25:45.764Z,61.69
2023-04-11T09:30:52.449Z,56.34
2023-04-11T09:35:58.750Z,54.46
2023-04-11T09:41:04.968Z,53.90
2023-04-11T09:46:10.565Z,54.78
2023-04-11T09:51:31.768Z,52.60
2023-04-11T09:56:40.063Z,54.87
2023-04-11T10:01:45.021Z,55.36
2023-04-11T10:07:02.364Z,51.72
2023-04-11T10:12:07.362Z,51.29
2023-04-11T10:17:22.174Z,50.72
2023-04-11T10:23:03.595Z,49.87
2023-04-11T10:28:08.180Z,50.03
2023-04-11T10:33:13.409Z,50.76
2023-04-11T10:38:50.389Z,49.94
2023-04-11T10:44:15.046Z,51.07
2023-04-11T10:49:36.810Z,52.69
2023-04-11T10:54:42.679Z,50.45
2023-04-11T11:00:00.289Z,49.61
2023-04-11T11:05:19.752Z,48.26
2023-04-11T11:10:43.087Z,47.86
2023-04-11T11:15:51.466Z,48.14
2023-04-11T11:20:57.146Z,47.97
2023-04-11T11:26:02.860Z,47.68
2023-04-11T11:31:07.646Z,46.01
2023-04-11T11:36:12.907Z,46.05
2023-04-11T11:41:18.813Z,46.78
2023-04-11T11:46:23.386Z,45.58
2023-04-11T11:51:28.226Z,40.39
2023-04-11T11:56:34.109Z,40.59
2023-04-11T12:01:39.139Z,42.47
2023-04-11T12:06:46.271Z,40.97
2023-04-11T12:11:56.453Z,41.58
2023-04-11T12:17:00.937Z,40.21
2023-04-11T12:22:05.656Z,42.36
2023-04-11T12:27:12.786Z,43.42
2023-04-11T12:32:17.357Z,42.78
2023-04-11T12:37:22.179Z,43.06
2023-04-11T12:42:28.326Z,40.61
2023-04-11T12:47:32.811Z,38.57
2023-04-11T12:52:38.250Z,39.65
2023-04-11T12:57:43.964Z,39.28
2023-04-11T13:02:48.791Z,37.74
2023-04-11T13:07:53.750Z,39.35
2023-04-11T13:13:05.404Z,39.98
2023-04-11T13:18:16.242Z,39.29
2023-04-11T13:23:20.752Z,40.33
2023-04-11T13:28:26.382Z,41.06
2023-04-11T13:33:30.802Z,40.44
2023-04-11T13:38:35.363Z,41.07
2023-04-11T13:43:41.376Z,43.25
2023-04-11T13:48:45.827Z,43.68
2023-04-11T13:53:50.166Z,44.58
2023-04-11T13:58:56.579Z,45.32
2023-04-11T14:04:01.922Z,45.92
2023-04-11T14:09:06.877Z,47.11
2023-04-11T14:14:13.113Z,47.05
2023-04-11T14:19:17.349Z,48.82
2023-04-11T14:24:22.438Z,50.07
2023-04-11T14:29:30.029Z,51.90
2023-04-11T14:34:34.193Z,53.24
2023-04-11T14:39:40.112Z,54.98
2023-04-11T14:44:45.639Z,55.01
2023-04-11T14:49:50.226Z,56.56
2023-04-11T14:54:54.558Z,59.02
2023-04-11T15:00:01.900Z,61.17
2023-04-11T15:05:06.819Z,64.62
2023-04-11T15:10:11.867Z,67.04
2023-04-11T15:15:17.504Z,70.21
2023-04-11T15:20:22.285Z,74.37
2023-04-11T15:25:26.796Z,77.03
2023-04-11T15:30:32.625Z,81.05
2023-04-11T15:35:36.747Z,84.82
2023-04-11T15:40:41.271Z,100.00
2023-04-11T15:45:47.089Z,100.00
2023-04-11T15:50:52.001Z,100.00
2023-04-11T15:55:56.468Z,100.00
2023-04-11T16:01:02.586Z,100.00
2023-04-11T16:06:08.052Z,100.00
2023-04-11T16:11:12.551Z,100.00
2023-04-11T16:16:18.466Z,100.00
2023-04-11T16:21:25.009Z,100.00
2023-04-11T16:26:29.207Z,100.00
2023-04-11T16:31:35.149Z,100.00
2023-04-11T16:36:39.615Z,100.00
2023-04-11T16:41:44.411Z,100.00
2023-04-11T16:46:50.049Z,100.00
2023-04-11T16:51:54.397Z,100.00
2023-04-11T16:56:58.796Z,100.00
2023-04-11T17:02:04.632Z,100.00
2023-04-11T17:07:10.546Z,100.00
2023-04-11T17:12:15.167Z,100.00
2023-04-11T17:17:21.163Z,100.00
2023-04-11T17:22:25.640Z,100.00
2023-04-11T17:27:30.326Z,100.00
2023-04-11T17:32:38.217Z,100.00
2023-04-11T17:37:43.076Z,100.00
2023-04-11T17:42:47.824Z,100.00
2023-04-11T17:47:54.167Z,100.00
2023-04-11T17:52:58.413Z,100.00
2023-04-11T17:58:03.766Z,100.00
2023-04-11T18:03:10.463Z,100.00
2023-04-11T18:08:15.002Z,100.00
2023-04-11T18:13:19.240Z,100.00
2023-04-11T18:18:25.854Z,100.00
2023-04-11T18:23:30.820Z,100.00
2023-04-11T18:28:35.439Z,100.00
2023-04-11T18:33:44.312Z,100.00
2023-04-11T18:39:04.160Z,100.00
2023-04-11T18:44:09.747Z,100.00
2023-04-11T18:49:17.836Z,100.00
2023-04-11T18:54:23.636Z,100.00
2023-04-11T18:59:29.676Z,100.00
2023-04-11T19:04:36.596Z,100.00
2023-04-11T19:09:41.072Z,100.00
2023-04-11T19:14:45.691Z,100.00
2023-04-11T19:19:51.905Z,100.00
2023-04-11T19:24:56.730Z,100.00
2023-04-11T19:30:01.015Z,100.00
2023-04-11T19:35:08.928Z,100.00
2023-04-11T19:40:14.401Z,100.00
2023-04-11T19:45:20.636Z,100.00
2023-04-11T19:50:26.703Z,100.00
2023-04-11T19:55:31.255Z,100.00
2023-04-11T20:00:37.785Z,100.00
2023-04-11T20:05:43.845Z,100.00
2023-04-11T20:10:48.834Z,100.00
2023-04-11T20:15:53.168Z,100.00
2023-04-11T20:20:58.998Z,100.00
2023-04-11T20:26:03.152Z,100.00
2023-04-11T20:31:08.550Z,100.00
2023-04-11T20:36:15.863Z,100.00
2023-04-11T20:41:20.305Z,100.00
2023-04-11T20:46:24.797Z,100.00
2023-04-11T20:51:30.886Z,100.00
2023-04-11T20:56:35.802Z,100.00
2023-04-11T21:01:40.954Z,100.00
2023-04-11T21:06:46.629Z,100.00
2023-04-11T21:11:50.821Z,100.00
2023-04-11T21:16:55.010Z,100.00
2023-04-11T21:22:01.033Z,100.00
2023-04-11T21:27:05.603Z,100.00
2023-04-11T21:32:10.273Z,100.00
2023-04-11T21:37:16.100Z,100.00
2023-04-11T21:42:20.202Z,100.00
2023-04-11T21:47:24.585Z,100.00
2023-04-11T21:52:30.373Z,100.00
2023-04-11T21:57:35.331Z,100.00
2023-04-11T22:02:39.862Z,100.00
2023-04-11T22:07:49.637Z,100.00
2023-04-11T22:12:54.810Z,100.00
2023-04-11T22:18:02.435Z,100.00
2023-04-11T22:23:09.764Z,100.00
2023-04-11T22:28:18.520Z,100.00
2023-04-11T22:33:22.729Z,100.00
2023-04-11T22:38:28.344Z,100.00
2023-04-11T22:43:33.477Z,100.00
2023-04-11T22:48:38.092Z,100.00
2023-04-11T22:53:48.328Z,100.00
2023-04-11T22:58:52.723Z,100.00
2023-04-11T23:03:57.758Z,100.00
2023-04-11T23:09:04.164Z,100.00
2023-04-11T23:14:08.522Z,100.00
2023-04-11T23:19:13.271Z,100.00
2023-04-11T23:24:18.868Z,100.00
2023-04-11T23:29:23.179Z,100.00
2023-04-11T23:34:27.488Z,100.00
2023-04-11T23:39:33.329Z,100.00
2023-04-11T23:44:37.715Z,100.00
2023-04-11T23:49:42.021Z,100.00
2023-04-11T23:54:48.069Z,100.00
2023-04-11T23:59:52.597Z,100.00
